sensor_id;sensor_type;location;lat;lon;timestamp;temperature;humidity
1011;DHT22;494;48.744;10.106;2023-04-06T00:01:15;2.60;23.00
1011;DHT22;494;48.744;10.106;2023-04-06T00:03:43;2.60;23.20
1011;DHT22;494;48.744;10.106;2023-04-06T00:06:13;2.70;23.50
1011;DHT22;494;48.744;10.106;2023-04-06T00:08:43;2.50;23.40
1011;DHT22;494;48.744;10.106;2023-04-06T00:11:12;2.60;23.30
1011;DHT22;494;48.744;10.106;2023-04-06T00:13:40;2.60;23.30
1011;DHT22;494;48.744;10.106;2023-04-06T00:16:09;2.60;23.10
1011;DHT22;494;48.744;10.106;2023-04-06T00:18:37;2.60;23.20
1011;DHT22;494;48.744;10.106;2023-04-06T00:21:05;2.60;23.10
1011;DHT22;494;48.744;10.106;2023-04-06T00:23:35;2.60;23.10
1011;DHT22;494;48.744;10.106;2023-04-06T00:26:04;2.80;23.20
1011;DHT22;494;48.744;10.106;2023-04-06T00:28:33;2.60;22.90
1011;DHT22;494;48.744;10.106;2023-04-06T00:31:01;2.60;22.90
1011;DHT22;494;48.744;10.106;2023-04-06T00:33:30;2.60;22.90
1011;DHT22;494;48.744;10.106;2023-04-06T00:36:00;2.60;23.00
1011;DHT22;494;48.744;10.106;2023-04-06T00:38:29;2.60;22.90
1011;DHT22;494;48.744;10.106;2023-04-06T00:40:59;2.60;22.90
1011;DHT22;494;48.744;10.106;2023-04-06T00:43:28;2.50;22.90
1011;DHT22;494;48.744;10.106;2023-04-06T00:45:56;2.60;23.00
1011;DHT22;494;48.744;10.106;2023-04-06T00:48:24;2.70;23.10
1011;DHT22;494;48.744;10.106;2023-04-06T00:50:54;2.40;23.10
1011;DHT22;494;48.744;10.106;2023-04-06T00:53:22;2.60;23.40
1011;DHT22;494;48.744;10.106;2023-04-06T00:55:51;2.40;23.50
1011;DHT22;494;48.744;10.106;2023-04-06T00:58:21;2.40;23.50
1011;DHT22;494;48.744;10.106;2023-04-06T01:00:49;2.30;24.10
1011;DHT22;494;48.744;10.106;2023-04-06T01:03:18;2.30;24.00
1011;DHT22;494;48.744;10.106;2023-04-06T01:05:46;2.30;23.90
1011;DHT22;494;48.744;10.106;2023-04-06T01:08:15;2.30;23.60
1011;DHT22;494;48.744;10.106;2023-04-06T01:10:44;2.20;23.40
1011;DHT22;494;48.744;10.106;2023-04-06T01:13:12;2.20;23.50
1011;DHT22;494;48.744;10.106;2023-04-06T01:15:42;2.20;23.70
1011;DHT22;494;48.744;10.106;2023-04-06T01:18:11;2.20;23.80
1011;DHT22;494;48.744;10.106;2023-04-06T01:20:40;2.10;23.90
1011;DHT22;494;48.744;10.106;2023-04-06T01:23:10;2.10;24.60
1011;DHT22;494;48.744;10.106;2023-04-06T01:25:39;2.30;24.10
1011;DHT22;494;48.744;10.106;2023-04-06T01:28:07;2.30;24.10
1011;DHT22;494;48.744;10.106;2023-04-06T01:30:36;2.10;24.00
1011;DHT22;494;48.744;10.106;2023-04-06T01:33:04;2.10;24.10
1011;DHT22;494;48.744;10.106;2023-04-06T01:35:33;2.00;24.10
1011;DHT22;494;48.744;10.106;2023-04-06T01:38:02;2.00;24.20
1011;DHT22;494;48.744;10.106;2023-04-06T01:40:32;2.30;24.10
1011;DHT22;494;48.744;10.106;2023-04-06T01:43:00;2.00;24.00
1011;DHT22;494;48.744;10.106;2023-04-06T01:45:29;1.90;24.30
1011;DHT22;494;48.744;10.106;2023-04-06T01:47:58;1.90;24.50
1011;DHT22;494;48.744;10.106;2023-04-06T01:50:26;1.90;24.90
1011;DHT22;494;48.744;10.106;2023-04-06T01:52:55;2.10;24.80
1011;DHT22;494;48.744;10.106;2023-04-06T01:55:23;1.90;24.80
1011;DHT22;494;48.744;10.106;2023-04-06T01:57:54;1.90;24.90
1011;DHT22;494;48.744;10.106;2023-04-06T02:00:22;1.80;24.70
1011;DHT22;494;48.744;10.106;2023-04-06T02:02:51;2.00;24.70
1011;DHT22;494;48.744;10.106;2023-04-06T02:05:20;2.00;24.80
1011;DHT22;494;48.744;10.106;2023-04-06T02:07:48;1.80;24.80
1011;DHT22;494;48.744;10.106;2023-04-06T02:10:18;1.80;25.00
1011;DHT22;494;48.744;10.106;2023-04-06T02:12:47;1.80;25.00
1011;DHT22;494;48.744;10.106;2023-04-06T02:15:17;1.80;25.00
1011;DHT22;494;48.744;10.106;2023-04-06T02:17:45;1.70;25.10
1011;DHT22;494;48.744;10.106;2023-04-06T02:20:14;1.70;25.00
1011;DHT22;494;48.744;10.106;2023-04-06T02:22:43;1.70;25.20
1011;DHT22;494;48.744;10.106;2023-04-06T02:25:12;1.70;25.20
1011;DHT22;494;48.744;10.106;2023-04-06T02:27:40;1.70;25.20
1011;DHT22;494;48.744;10.106;2023-04-06T02:30:10;1.70;25.20
1011;DHT22;494;48.744;10.106;2023-04-06T02:32:40;1.70;25.30
1011;DHT22;494;48.744;10.106;2023-04-06T02:35:09;1.70;26.00
1011;DHT22;494;48.744;10.106;2023-04-06T02:37:37;1.70;25.30
1011;DHT22;494;48.744;10.106;2023-04-06T02:40:07;1.70;25.20
1011;DHT22;494;48.744;10.106;2023-04-06T02:42:36;1.70;25.10
1011;DHT22;494;48.744;10.106;2023-04-06T02:45:06;1.70;25.20
1011;DHT22;494;48.744;10.106;2023-04-06T02:47:35;1.70;25.20
1011;DHT22;494;48.744;10.106;2023-04-06T02:50:05;1.70;25.20
1011;DHT22;494;48.744;10.106;2023-04-06T02:52:34;1.70;25.20
1011;DHT22;494;48.744;10.106;2023-04-06T02:55:03;1.70;25.30
1011;DHT22;494;48.744;10.106;2023-04-06T02:57:34;1.40;25.30
1011;DHT22;494;48.744;10.106;2023-04-06T03:00:03;1.70;25.70
1011;DHT22;494;48.744;10.106;2023-04-06T03:02:33;1.50;25.70
1011;DHT22;494;48.744;10.106;2023-04-06T03:05:02;1.50;25.60
1011;DHT22;494;48.744;10.106;2023-04-06T03:07:32;1.50;25.50
1011;DHT22;494;48.744;10.106;2023-04-06T03:10:01;1.50;25.50
1011;DHT22;494;48.744;10.106;2023-04-06T03:12:29;1.50;25.60
1011;DHT22;494;48.744;10.106;2023-04-06T03:14:58;1.50;25.60
1011;DHT22;494;48.744;10.106;2023-04-06T03:17:26;1.40;25.60
1011;DHT22;494;48.744;10.106;2023-04-06T03:19:55;1.40;25.60
1011;DHT22;494;48.744;10.106;2023-04-06T03:22:23;1.40;25.80
1011;DHT22;494;48.744;10.106;2023-04-06T03:24:54;1.50;25.80
1011;DHT22;494;48.744;10.106;2023-04-06T03:27:22;1.50;25.90
1011;DHT22;494;48.744;10.106;2023-04-06T03:29:51;1.60;26.00
1011;DHT22;494;48.744;10.106;2023-04-06T03:32:20;1.40;26.00
1011;DHT22;494;48.744;10.106;2023-04-06T03:34:48;1.40;25.90
1011;DHT22;494;48.744;10.106;2023-04-06T03:37:17;1.30;25.90
1011;DHT22;494;48.744;10.106;2023-04-06T03:39:45;1.40;25.80
1011;DHT22;494;48.744;10.106;2023-04-06T03:42:15;1.50;26.00
1011;DHT22;494;48.744;10.106;2023-04-06T03:44:44;1.50;26.10
1011;DHT22;494;48.744;10.106;2023-04-06T03:47:12;1.30;25.90
1011;DHT22;494;48.744;10.106;2023-04-06T03:49:41;1.30;26.00
1011;DHT22;494;48.744;10.106;2023-04-06T03:52:10;1.30;26.00
1011;DHT22;494;48.744;10.106;2023-04-06T03:54:38;1.30;26.10
1011;DHT22;494;48.744;10.106;2023-04-06T03:57:07;1.20;26.00
1011;DHT22;494;48.744;10.106;2023-04-06T03:59:37;1.30;26.90
1011;DHT22;494;48.744;10.106;2023-04-06T04:02:06;1.20;26.10
1011;DHT22;494;48.744;10.106;2023-04-06T04:04:34;1.40;26.30
1011;DHT22;494;48.744;10.106;2023-04-06T04:07:03;1.30;26.40
1011;DHT22;494;48.744;10.106;2023-04-06T04:09:32;1.20;26.20
1011;DHT22;494;48.744;10.106;2023-04-06T04:12:00;1.30;26.30
1011;DHT22;494;48.744;10.106;2023-04-06T04:14:29;1.20;26.30
1011;DHT22;494;48.744;10.106;2023-04-06T04:16:58;1.20;26.40
1011;DHT22;494;48.744;10.106;2023-04-06T04:19:27;1.20;26.60
1011;DHT22;494;48.744;10.106;2023-04-06T04:21:56;1.20;26.70
1011;DHT22;494;48.744;10.106;2023-04-06T04:24:24;1.20;26.70
1011;DHT22;494;48.744;10.106;2023-04-06T04:26:53;1.20;26.70
1011;DHT22;494;48.744;10.106;2023-04-06T04:29:22;1.10;26.70
1011;DHT22;494;48.744;10.106;2023-04-06T04:31:50;1.20;26.50
1011;DHT22;494;48.744;10.106;2023-04-06T04:34:20;1.10;26.50
1011;DHT22;494;48.744;10.106;2023-04-06T04:36:52;1.10;26.60
1011;DHT22;494;48.744;10.106;2023-04-06T04:39:20;1.00;26.60
1011;DHT22;494;48.744;10.106;2023-04-06T04:41:49;1.00;26.80
1011;DHT22;494;48.744;10.106;2023-04-06T04:44:17;1.00;26.80
1011;DHT22;494;48.744;10.106;2023-04-06T04:46:46;1.00;26.90
1011;DHT22;494;48.744;10.106;2023-04-06T04:49:15;1.00;26.90
1011;DHT22;494;48.744;10.106;2023-04-06T04:51:45;1.00;27.10
1011;DHT22;494;48.744;10.106;2023-04-06T04:54:14;1.00;27.20
1011;DHT22;494;48.744;10.106;2023-04-06T04:56:42;1.20;27.30
1011;DHT22;494;48.744;10.106;2023-04-06T04:59:10;1.10;27.20
1011;DHT22;494;48.744;10.106;2023-04-06T05:01:39;1.10;27.10
1011;DHT22;494;48.744;10.106;2023-04-06T05:04:21;1.00;27.10
1011;DHT22;494;48.744;10.106;2023-04-06T05:07:02;1.00;27.10
1011;DHT22;494;48.744;10.106;2023-04-06T05:09:31;1.10;27.20
1011;DHT22;494;48.744;10.106;2023-04-06T05:12:00;1.10;27.50
1011;DHT22;494;48.744;10.106;2023-04-06T05:14:29;1.00;27.00
1011;DHT22;494;48.744;10.106;2023-04-06T05:16:58;1.10;27.90
1011;DHT22;494;48.744;10.106;2023-04-06T05:19:27;1.10;27.20
1011;DHT22;494;48.744;10.106;2023-04-06T05:21:57;1.10;27.20
1011;DHT22;494;48.744;10.106;2023-04-06T05:24:25;1.10;27.30
1011;DHT22;494;48.744;10.106;2023-04-06T05:26:54;1.20;27.40
1011;DHT22;494;48.744;10.106;2023-04-06T05:29:23;1.20;27.40
1011;DHT22;494;48.744;10.106;2023-04-06T05:31:51;1.10;27.20
1011;DHT22;494;48.744;10.106;2023-04-06T05:34:20;1.20;27.20
1011;DHT22;494;48.744;10.106;2023-04-06T05:36:48;1.10;27.50
1011;DHT22;494;48.744;10.106;2023-04-06T05:39:18;1.20;27.60
1011;DHT22;494;48.744;10.106;2023-04-06T05:41:48;1.40;27.80
1011;DHT22;494;48.744;10.106;2023-04-06T05:44:17;1.20;27.80
1011;DHT22;494;48.744;10.106;2023-04-06T05:46:45;1.20;27.70
1011;DHT22;494;48.744;10.106;2023-04-06T05:49:14;1.50;27.90
1011;DHT22;494;48.744;10.106;2023-04-06T05:51:42;1.40;27.80
1011;DHT22;494;48.744;10.106;2023-04-06T05:54:11;1.50;28.00
1011;DHT22;494;48.744;10.106;2023-04-06T05:56:41;1.50;28.00
1011;DHT22;494;48.744;10.106;2023-04-06T05:59:10;1.70;27.80
1011;DHT22;494;48.744;10.106;2023-04-06T06:01:38;1.70;27.70
1011;DHT22;494;48.744;10.106;2023-04-06T06:04:07;1.80;27.30
1011;DHT22;494;48.744;10.106;2023-04-06T06:06:36;1.90;27.00
1011;DHT22;494;48.744;10.106;2023-04-06T06:09:04;1.90;26.70
1011;DHT22;494;48.744;10.106;2023-04-06T06:11:33;2.00;26.60
1011;DHT22;494;48.744;10.106;2023-04-06T06:14:03;2.10;26.60
1011;DHT22;494;48.744;10.106;2023-04-06T06:16:32;2.30;26.30
1011;DHT22;494;48.744;10.106;2023-04-06T06:19:01;2.40;26.90
1011;DHT22;494;48.744;10.106;2023-04-06T06:21:29;2.60;25.70
1011;DHT22;494;48.744;10.106;2023-04-06T06:23:58;2.60;25.40
1011;DHT22;494;48.744;10.106;2023-04-06T06:26:27;2.80;25.40
1011;DHT22;494;48.744;10.106;2023-04-06T06:28:56;2.90;25.10
1011;DHT22;494;48.744;10.106;2023-04-06T06:31:26;3.10;25.00
1011;DHT22;494;48.744;10.106;2023-04-06T06:33:54;3.50;24.70
1011;DHT22;494;48.744;10.106;2023-04-06T06:36:23;3.70;24.10
1011;DHT22;494;48.744;10.106;2023-04-06T06:38:53;3.70;23.30
1011;DHT22;494;48.744;10.106;2023-04-06T06:41:22;3.80;22.60
1011;DHT22;494;48.744;10.106;2023-04-06T06:43:51;4.00;22.40
1011;DHT22;494;48.744;10.106;2023-04-06T06:46:20;4.20;22.10
1011;DHT22;494;48.744;10.106;2023-04-06T06:48:50;4.30;21.30
1011;DHT22;494;48.744;10.106;2023-04-06T06:51:19;4.50;21.00
1011;DHT22;494;48.744;10.106;2023-04-06T06:53:48;4.60;20.50
1011;DHT22;494;48.744;10.106;2023-04-06T06:56:16;4.90;19.90
1011;DHT22;494;48.744;10.106;2023-04-06T06:58:45;4.80;20.10
1011;DHT22;494;48.744;10.106;2023-04-06T07:01:14;4.90;19.60
1011;DHT22;494;48.744;10.106;2023-04-06T07:03:43;5.10;19.60
1011;DHT22;494;48.744;10.106;2023-04-06T07:06:13;5.40;19.90
1011;DHT22;494;48.744;10.106;2023-04-06T07:08:42;5.40;19.30
1011;DHT22;494;48.744;10.106;2023-04-06T07:11:10;5.60;19.00
1011;DHT22;494;48.744;10.106;2023-04-06T07:13:40;5.80;18.80
1011;DHT22;494;48.744;10.106;2023-04-06T07:16:08;6.00;19.00
1011;DHT22;494;48.744;10.106;2023-04-06T07:18:37;6.10;18.50
1011;DHT22;494;48.744;10.106;2023-04-06T07:21:06;6.30;18.50
1011;DHT22;494;48.744;10.106;2023-04-06T07:23:36;6.60;17.90
1011;DHT22;494;48.744;10.106;2023-04-06T07:26:05;6.90;17.60
1011;DHT22;494;48.744;10.106;2023-04-06T07:28:33;7.10;16.60
1011;DHT22;494;48.744;10.106;2023-04-06T07:31:02;7.30;16.10
1011;DHT22;494;48.744;10.106;2023-04-06T07:33:31;7.50;15.60
1011;DHT22;494;48.744;10.106;2023-04-06T07:35:59;7.80;14.80
1011;DHT22;494;48.744;10.106;2023-04-06T07:38:28;7.90;14.10
1011;DHT22;494;48.744;10.106;2023-04-06T07:40:59;8.20;14.20
1011;DHT22;494;48.744;10.106;2023-04-06T07:43:30;8.40;13.50
1011;DHT22;494;48.744;10.106;2023-04-06T07:45:59;8.60;12.80
1011;DHT22;494;48.744;10.106;2023-04-06T07:48:29;8.60;12.80
1011;DHT22;494;48.744;10.106;2023-04-06T07:51:02;8.80;12.50
1011;DHT22;494;48.744;10.106;2023-04-06T07:53:33;9.00;12.40
1011;DHT22;494;48.744;10.106;2023-04-06T07:56:03;9.10;12.50
1011;DHT22;494;48.744;10.106;2023-04-06T07:58:33;9.30;11.60
1011;DHT22;494;48.744;10.106;2023-04-06T08:01:02;9.60;11.40
1011;DHT22;494;48.744;10.106;2023-04-06T08:03:32;9.80;10.30
1011;DHT22;494;48.744;10.106;2023-04-06T08:06:02;9.90;10.10
1011;DHT22;494;48.744;10.106;2023-04-06T08:08:32;10.00;10.20
1011;DHT22;494;48.744;10.106;2023-04-06T08:11:00;10.10;9.80
1011;DHT22;494;48.744;10.106;2023-04-06T08:13:31;10.20;9.40
1011;DHT22;494;48.744;10.106;2023-04-06T08:15:59;10.40;9.40
1011;DHT22;494;48.744;10.106;2023-04-06T08:18:29;10.40;9.30
1011;DHT22;494;48.744;10.106;2023-04-06T08:20:58;10.60;9.30
1011;DHT22;494;48.744;10.106;2023-04-06T08:23:28;10.70;9.00
1011;DHT22;494;48.744;10.106;2023-04-06T08:25:57;11.00;8.70
1011;DHT22;494;48.744;10.106;2023-04-06T08:28:29;11.20;8.40
1011;DHT22;494;48.744;10.106;2023-04-06T08:31:03;11.40;8.10
1011;DHT22;494;48.744;10.106;2023-04-06T08:33:34;11.60;7.50
1011;DHT22;494;48.744;10.106;2023-04-06T08:36:10;11.70;7.20
1011;DHT22;494;48.744;10.106;2023-04-06T08:38:40;11.90;7.60
1011;DHT22;494;48.744;10.106;2023-04-06T08:41:19;12.20;5.50
1011;DHT22;494;48.744;10.106;2023-04-06T08:43:54;12.40;6.00
1011;DHT22;494;48.744;10.106;2023-04-06T08:46:28;12.60;5.60
1011;DHT22;494;48.744;10.106;2023-04-06T08:48:58;12.90;4.90
1011;DHT22;494;48.744;10.106;2023-04-06T08:51:29;13.10;4.20
1011;DHT22;494;48.744;10.106;2023-04-06T08:53:59;13.40;5.40
1011;DHT22;494;48.744;10.106;2023-04-06T08:56:28;13.60;3.30
1011;DHT22;494;48.744;10.106;2023-04-06T08:58:59;13.80;2.70
1011;DHT22;494;48.744;10.106;2023-04-06T09:01:29;14.10;3.40
1011;DHT22;494;48.744;10.106;2023-04-06T09:04:00;14.60;1.40
1011;DHT22;494;48.744;10.106;2023-04-06T09:06:31;14.90;1.00
1011;DHT22;494;48.744;10.106;2023-04-06T09:08:59;15.20;1.00
1011;DHT22;494;48.744;10.106;2023-04-06T09:11:28;15.40;1.00
1011;DHT22;494;48.744;10.106;2023-04-06T09:13:58;15.40;1.00
1011;DHT22;494;48.744;10.106;2023-04-06T09:16:27;15.70;1.00
1011;DHT22;494;48.744;10.106;2023-04-06T09:19:04;15.80;1.00
1011;DHT22;494;48.744;10.106;2023-04-06T09:21:32;15.90;1.00
1011;DHT22;494;48.744;10.106;2023-04-06T09:24:02;16.20;1.00
1011;DHT22;494;48.744;10.106;2023-04-06T09:26:32;16.10;1.00
1011;DHT22;494;48.744;10.106;2023-04-06T09:29:03;16.00;1.00
1011;DHT22;494;48.744;10.106;2023-04-06T09:31:33;16.30;1.00
1011;DHT22;494;48.744;10.106;2023-04-06T09:34:02;16.60;1.00
1011;DHT22;494;48.744;10.106;2023-04-06T09:36:31;16.90;1.00
1011;DHT22;494;48.744;10.106;2023-04-06T09:39:01;17.10;1.00
1011;DHT22;494;48.744;10.106;2023-04-06T09:41:32;17.30;1.00
1011;DHT22;494;48.744;10.106;2023-04-06T09:44:04;17.20;1.00
1011;DHT22;494;48.744;10.106;2023-04-06T09:46:36;16.90;1.00
1011;DHT22;494;48.744;10.106;2023-04-06T09:49:24;17.00;1.00
1011;DHT22;494;48.744;10.106;2023-04-06T09:51:59;17.20;1.00
1011;DHT22;494;48.744;10.106;2023-04-06T09:54:30;17.30;1.00
1011;DHT22;494;48.744;10.106;2023-04-06T09:57:06;17.30;1.00
1011;DHT22;494;48.744;10.106;2023-04-06T09:59:47;17.40;1.00
1011;DHT22;494;48.744;10.106;2023-04-06T10:02:28;17.40;1.00
1011;DHT22;494;48.744;10.106;2023-04-06T10:05:09;17.80;1.00
1011;DHT22;494;48.744;10.106;2023-04-06T10:07:42;18.10;1.00
1011;DHT22;494;48.744;10.106;2023-04-06T10:10:26;18.40;1.00
1011;DHT22;494;48.744;10.106;2023-04-06T10:12:56;18.70;1.00
1011;DHT22;494;48.744;10.106;2023-04-06T10:15:29;18.70;1.00
1011;DHT22;494;48.744;10.106;2023-04-06T10:17:59;18.40;1.00
1011;DHT22;494;48.744;10.106;2023-04-06T10:20:34;18.60;1.00
1011;DHT22;494;48.744;10.106;2023-04-06T10:23:11;18.50;1.00
1011;DHT22;494;48.744;10.106;2023-04-06T10:25:52;18.40;1.00
1011;DHT22;494;48.744;10.106;2023-04-06T10:28:22;18.80;1.00
1011;DHT22;494;48.744;10.106;2023-04-06T10:30:59;19.10;1.00
1011;DHT22;494;48.744;10.106;2023-04-06T10:33:28;19.10;1.00
1011;DHT22;494;48.744;10.106;2023-04-06T10:35:57;18.90;1.00
1011;DHT22;494;48.744;10.106;2023-04-06T10:38:36;18.70;1.00
1011;DHT22;494;48.744;10.106;2023-04-06T10:41:08;18.90;1.00
1011;DHT22;494;48.744;10.106;2023-04-06T10:43:40;19.00;1.00
1011;DHT22;494;48.744;10.106;2023-04-06T10:46:11;19.40;1.00
1011;DHT22;494;48.744;10.106;2023-04-06T10:48:40;19.70;1.00
1011;DHT22;494;48.744;10.106;2023-04-06T10:51:17;20.10;1.00
1011;DHT22;494;48.744;10.106;2023-04-06T10:53:53;20.40;1.00
1011;DHT22;494;48.744;10.106;2023-04-06T10:56:26;20.30;1.00
1011;DHT22;494;48.744;10.106;2023-04-06T10:59:00;19.60;1.00
1011;DHT22;494;48.744;10.106;2023-04-06T11:01:30;19.60;1.00
1011;DHT22;494;48.744;10.106;2023-04-06T11:03:59;19.80;1.00
1011;DHT22;494;48.744;10.106;2023-04-06T11:06:29;19.80;1.00
1011;DHT22;494;48.744;10.106;2023-04-06T11:08:59;20.00;1.00
1011;DHT22;494;48.744;10.106;2023-04-06T11:11:28;20.10;1.00
1011;DHT22;494;48.744;10.106;2023-04-06T11:13:58;20.30;1.00
1011;DHT22;494;48.744;10.106;2023-04-06T11:16:33;20.40;1.00
1011;DHT22;494;48.744;10.106;2023-04-06T11:19:02;20.50;1.00
1011;DHT22;494;48.744;10.106;2023-04-06T11:21:35;20.90;1.00
1011;DHT22;494;48.744;10.106;2023-04-06T11:24:11;21.20;1.00
1011;DHT22;494;48.744;10.106;2023-04-06T11:26:42;21.40;1.00
1011;DHT22;494;48.744;10.106;2023-04-06T11:29:13;21.40;1.00
1011;DHT22;494;48.744;10.106;2023-04-06T11:31:46;21.30;1.00
1011;DHT22;494;48.744;10.106;2023-04-06T11:34:17;20.90;1.00
1011;DHT22;494;48.744;10.106;2023-04-06T11:36:48;20.80;1.00
1011;DHT22;494;48.744;10.106;2023-04-06T11:39:22;20.50;1.00
1011;DHT22;494;48.744;10.106;2023-04-06T11:41:52;20.70;1.00
1011;DHT22;494;48.744;10.106;2023-04-06T11:44:31;20.70;1.00
1011;DHT22;494;48.744;10.106;2023-04-06T11:47:04;20.60;1.00
1011;DHT22;494;48.744;10.106;2023-04-06T11:49:37;20.80;1.00
1011;DHT22;494;48.744;10.106;2023-04-06T11:52:15;20.80;1.00
1011;DHT22;494;48.744;10.106;2023-04-06T11:54:44;20.10;1.00
1011;DHT22;494;48.744;10.106;2023-04-06T11:57:14;19.30;1.00
1011;DHT22;494;48.744;10.106;2023-04-06T11:59:44;19.00;1.00
1011;DHT22;494;48.744;10.106;2023-04-06T12:02:14;18.80;1.00
1011;DHT22;494;48.744;10.106;2023-04-06T12:04:45;18.50;1.00
1011;DHT22;494;48.744;10.106;2023-04-06T12:07:14;18.10;1.00
1011;DHT22;494;48.744;10.106;2023-04-06T12:09:43;17.80;1.00
1011;DHT22;494;48.744;10.106;2023-04-06T12:12:12;17.60;1.00
1011;DHT22;494;48.744;10.106;2023-04-06T12:14:40;17.50;1.00
1011;DHT22;494;48.744;10.106;2023-04-06T12:17:09;17.30;1.00
1011;DHT22;494;48.744;10.106;2023-04-06T12:19:39;17.20;1.00
1011;DHT22;494;48.744;10.106;2023-04-06T12:22:08;17.20;1.00
1011;DHT22;494;48.744;10.106;2023-04-06T12:24:36;17.70;1.00
1011;DHT22;494;48.744;10.106;2023-04-06T12:27:06;18.70;1.00
1011;DHT22;494;48.744;10.106;2023-04-06T12:29:37;19.50;1.00
1011;DHT22;494;48.744;10.106;2023-04-06T12:32:05;20.00;1.00
1011;DHT22;494;48.744;10.106;2023-04-06T12:34:35;20.50;1.00
1011;DHT22;494;48.744;10.106;2023-04-06T12:37:05;21.10;1.00
1011;DHT22;494;48.744;10.106;2023-04-06T12:39:34;21.50;1.00
1011;DHT22;494;48.744;10.106;2023-04-06T12:42:03;21.80;1.00
1011;DHT22;494;48.744;10.106;2023-04-06T12:44:31;22.20;1.00
1011;DHT22;494;48.744;10.106;2023-04-06T12:47:00;22.60;1.00
1011;DHT22;494;48.744;10.106;2023-04-06T12:49:29;23.00;1.00
1011;DHT22;494;48.744;10.106;2023-04-06T12:51:58;23.20;1.00
1011;DHT22;494;48.744;10.106;2023-04-06T12:54:29;23.20;1.00
1011;DHT22;494;48.744;10.106;2023-04-06T12:56:57;23.20;1.00
1011;DHT22;494;48.744;10.106;2023-04-06T12:59:27;23.20;1.00
1011;DHT22;494;48.744;10.106;2023-04-06T13:02:01;23.40;1.00
1011;DHT22;494;48.744;10.106;2023-04-06T13:04:32;23.70;1.00
1011;DHT22;494;48.744;10.106;2023-04-06T13:07:00;24.00;1.00
1011;DHT22;494;48.744;10.106;2023-04-06T13:09:30;24.00;1.00
1011;DHT22;494;48.744;10.106;2023-04-06T13:11:59;24.10;1.00
1011;DHT22;494;48.744;10.106;2023-04-06T13:14:27;24.00;1.00
1011;DHT22;494;48.744;10.106;2023-04-06T13:16:56;24.20;1.00
1011;DHT22;494;48.744;10.106;2023-04-06T13:19:25;24.50;1.00
1011;DHT22;494;48.744;10.106;2023-04-06T13:21:53;24.50;1.00
1011;DHT22;494;48.744;10.106;2023-04-06T13:24:22;24.30;1.00
1011;DHT22;494;48.744;10.106;2023-04-06T13:26:52;24.40;1.00
1011;DHT22;494;48.744;10.106;2023-04-06T13:29:21;24.20;1.00
1011;DHT22;494;48.744;10.106;2023-04-06T13:31:49;24.00;1.00
1011;DHT22;494;48.744;10.106;2023-04-06T13:34:18;24.10;1.00
1011;DHT22;494;48.744;10.106;2023-04-06T13:36:47;24.30;1.00
1011;DHT22;494;48.744;10.106;2023-04-06T13:39:15;24.40;1.00
1011;DHT22;494;48.744;10.106;2023-04-06T13:41:44;24.70;1.00
1011;DHT22;494;48.744;10.106;2023-04-06T13:44:14;24.90;1.00
1011;DHT22;494;48.744;10.106;2023-04-06T13:46:43;25.10;1.00
1011;DHT22;494;48.744;10.106;2023-04-06T13:49:11;25.20;1.00
1011;DHT22;494;48.744;10.106;2023-04-06T13:51:40;24.70;1.00
1011;DHT22;494;48.744;10.106;2023-04-06T13:54:09;24.20;1.00
1011;DHT22;494;48.744;10.106;2023-04-06T13:56:37;24.20;1.00
1011;DHT22;494;48.744;10.106;2023-04-06T13:59:06;24.00;1.00
1011;DHT22;494;48.744;10.106;2023-04-06T14:01:37;24.10;1.00
1011;DHT22;494;48.744;10.106;2023-04-06T14:04:05;24.40;1.00
1011;DHT22;494;48.744;10.106;2023-04-06T14:06:34;24.50;1.00
1011;DHT22;494;48.744;10.106;2023-04-06T14:09:03;24.30;1.00
1011;DHT22;494;48.744;10.106;2023-04-06T14:11:32;24.40;1.00
1011;DHT22;494;48.744;10.106;2023-04-06T14:14:01;24.40;1.00
1011;DHT22;494;48.744;10.106;2023-04-06T14:16:29;24.30;1.00
1011;DHT22;494;48.744;10.106;2023-04-06T14:19:00;24.50;1.00
1011;DHT22;494;48.744;10.106;2023-04-06T14:21:29;25.00;1.00
1011;DHT22;494;48.744;10.106;2023-04-06T14:23:59;25.20;1.00
1011;DHT22;494;48.744;10.106;2023-04-06T14:26:29;25.50;1.00
1011;DHT22;494;48.744;10.106;2023-04-06T14:28:58;26.00;1.00
1011;DHT22;494;48.744;10.106;2023-04-06T14:31:28;26.10;1.00
1011;DHT22;494;48.744;10.106;2023-04-06T14:33:57;26.20;1.00
1011;DHT22;494;48.744;10.106;2023-04-06T14:36:27;26.40;1.00
1011;DHT22;494;48.744;10.106;2023-04-06T14:38:58;26.30;1.00
1011;DHT22;494;48.744;10.106;2023-04-06T14:41:27;26.00;1.00
1011;DHT22;494;48.744;10.106;2023-04-06T14:43:56;25.60;1.00
1011;DHT22;494;48.744;10.106;2023-04-06T14:46:25;25.20;1.00
1011;DHT22;494;48.744;10.106;2023-04-06T14:48:54;24.50;1.00
1011;DHT22;494;48.744;10.106;2023-04-06T14:51:24;24.20;1.00
1011;DHT22;494;48.744;10.106;2023-04-06T14:53:55;24.10;1.00
1011;DHT22;494;48.744;10.106;2023-04-06T14:56:24;24.30;1.00
1011;DHT22;494;48.744;10.106;2023-04-06T14:58:53;24.50;1.00
1011;DHT22;494;48.744;10.106;2023-04-06T15:01:24;24.90;1.00
1011;DHT22;494;48.744;10.106;2023-04-06T15:03:52;24.90;1.00
1011;DHT22;494;48.744;10.106;2023-04-06T15:06:22;25.00;1.00
1011;DHT22;494;48.744;10.106;2023-04-06T15:08:51;24.40;1.00
1011;DHT22;494;48.744;10.106;2023-04-06T15:11:22;24.00;1.00
1011;DHT22;494;48.744;10.106;2023-04-06T15:13:51;23.80;1.00
1011;DHT22;494;48.744;10.106;2023-04-06T15:16:20;23.80;1.00
1011;DHT22;494;48.744;10.106;2023-04-06T15:18:49;23.60;1.00
1011;DHT22;494;48.744;10.106;2023-04-06T15:21:19;23.20;1.00
1011;DHT22;494;48.744;10.106;2023-04-06T15:23:49;22.90;1.00
1011;DHT22;494;48.744;10.106;2023-04-06T15:26:22;22.60;1.00
1011;DHT22;494;48.744;10.106;2023-04-06T15:28:50;22.40;1.00
1011;DHT22;494;48.744;10.106;2023-04-06T15:31:19;22.30;1.00
1011;DHT22;494;48.744;10.106;2023-04-06T15:34:08;21.90;1.00
1011;DHT22;494;48.744;10.106;2023-04-06T15:36:37;21.70;1.00
1011;DHT22;494;48.744;10.106;2023-04-06T15:39:06;21.60;1.00
1011;DHT22;494;48.744;10.106;2023-04-06T15:41:37;21.30;1.00
1011;DHT22;494;48.744;10.106;2023-04-06T15:44:07;20.90;1.00
1011;DHT22;494;48.744;10.106;2023-04-06T15:46:36;20.50;1.00
1011;DHT22;494;48.744;10.106;2023-04-06T15:49:05;20.40;1.00
1011;DHT22;494;48.744;10.106;2023-04-06T15:51:33;20.30;1.00
1011;DHT22;494;48.744;10.106;2023-04-06T15:54:03;20.00;1.00
1011;DHT22;494;48.744;10.106;2023-04-06T15:56:31;19.70;1.00
1011;DHT22;494;48.744;10.106;2023-04-06T15:59:01;19.30;1.00
1011;DHT22;494;48.744;10.106;2023-04-06T16:01:31;19.00;1.00
1011;DHT22;494;48.744;10.106;2023-04-06T16:04:00;19.00;1.00
1011;DHT22;494;48.744;10.106;2023-04-06T16:06:28;18.90;1.00
1011;DHT22;494;48.744;10.106;2023-04-06T16:08:58;19.00;1.00
1011;DHT22;494;48.744;10.106;2023-04-06T16:11:28;18.80;1.00
1011;DHT22;494;48.744;10.106;2023-04-06T16:13:58;18.80;1.00
1011;DHT22;494;48.744;10.106;2023-04-06T16:16:28;18.60;1.00
1011;DHT22;494;48.744;10.106;2023-04-06T16:18:57;18.40;1.00
1011;DHT22;494;48.744;10.106;2023-04-06T16:21:25;18.30;1.00
1011;DHT22;494;48.744;10.106;2023-04-06T16:23:54;18.00;1.00
1011;DHT22;494;48.744;10.106;2023-04-06T16:26:25;17.80;1.00
1011;DHT22;494;48.744;10.106;2023-04-06T16:28:54;17.50;1.00
1011;DHT22;494;48.744;10.106;2023-04-06T16:31:23;17.40;1.00
1011;DHT22;494;48.744;10.106;2023-04-06T16:33:55;17.10;1.00